Terminal Aerodrome Forecast
Issued by NWS

Home | Current Version | Previous Version | Text Only | Print | Product List | Glossary On
Versions: 1 2 3 4 5 6 7 8 9 10 11 12
000
FTUS45 KABQ 272333
TAFROW
TAF
KROW 272333Z 2800/2824 26015G25KT P6SM SCT090
     FM280100 24012G20KT P6SM SCT090 SCT140
     FM280400 27007KT P6SM SCT140
     FM280700 36006KT P6SM SCT140
     FM281800 16008KT P6SM SKC=

USA.gov is the U.S. government's official web portal to all federal, state and local government web resources and services.